createdAt,value
2022-08-17T00:00:34.925Z,100.00
2022-08-17T00:05:51.538Z,100.00
2022-08-17T00:10:54.757Z,100.00
2022-08-17T00:16:03.493Z,100.00
2022-08-17T00:21:10.730Z,100.00
2022-08-17T00:26:14.320Z,100.00
2022-08-17T00:31:16.547Z,100.00
2022-08-17T00:36:18.730Z,100.00
2022-08-17T00:41:24.099Z,100.00
2022-08-17T00:46:36.050Z,100.00
2022-08-17T00:51:44.670Z,100.00
2022-08-17T00:56:51.285Z,100.00
2022-08-17T01:01:55.722Z,100.00
2022-08-17T01:07:01.098Z,100.00
2022-08-17T01:12:05.482Z,100.00
2022-08-17T01:17:08.336Z,100.00
2022-08-17T01:22:14.347Z,100.00
2022-08-17T01:27:18.458Z,100.00
2022-08-17T01:32:22.474Z,100.00
2022-08-17T01:37:32.278Z,100.00
2022-08-17T01:42:40.501Z,100.00
2022-08-17T01:47:42.546Z,100.00
2022-08-17T01:52:46.713Z,100.00
2022-08-17T01:57:48.610Z,100.00
2022-08-17T02:02:50.605Z,100.00
2022-08-17T02:08:00.613Z,100.00
2022-08-17T02:13:04.470Z,100.00
2022-08-17T02:18:07.584Z,100.00
2022-08-17T02:23:11.198Z,100.00
2022-08-17T02:28:13.742Z,100.00
2022-08-17T02:33:17.793Z,100.00
2022-08-17T02:38:22.265Z,100.00
2022-08-17T02:43:24.379Z,100.00
2022-08-17T02:48:31.149Z,100.00
2022-08-17T02:53:35.972Z,100.00
2022-08-17T02:58:38.377Z,100.00
2022-08-17T03:03:40.365Z,100.00
2022-08-17T03:08:42.304Z,100.00
2022-08-17T03:13:44.151Z,100.00
2022-08-17T03:18:49.103Z,100.00
2022-08-17T03:23:54.444Z,100.00
2022-08-17T03:28:57.510Z,100.00
2022-08-17T03:33:59.508Z,100.00
2022-08-17T03:39:01.783Z,100.00
2022-08-17T03:44:04.584Z,100.00
2022-08-17T03:49:27.927Z,100.00
2022-08-17T03:54:48.198Z,100.00
2022-08-17T03:59:50.133Z,100.00
2022-08-17T04:04:52.649Z,100.00
2022-08-17T04:09:54.845Z,100.00
2022-08-17T04:14:57.031Z,100.00
2022-08-17T04:19:58.933Z,100.00
2022-08-17T04:25:15.578Z,100.00
2022-08-17T04:30:17.529Z,100.00
2022-08-17T04:35:25.548Z,100.00
2022-08-17T04:40:46.994Z,100.00
2022-08-17T04:45:58.045Z,100.00
2022-08-17T04:51:00.219Z,100.00
2022-08-17T04:56:03.568Z,100.00
2022-08-17T05:01:06.060Z,100.00
2022-08-17T05:06:08.943Z,100.00
2022-08-17T05:11:10.975Z,100.00
2022-08-17T05:16:13.046Z,100.00
2022-08-17T05:21:15.729Z,100.00
2022-08-17T05:26:26.736Z,100.00
2022-08-17T05:31:29.719Z,100.00
2022-08-17T05:36:41.962Z,100.00
2022-08-17T05:41:48.214Z,100.00
2022-08-17T05:46:54.255Z,100.00
2022-08-17T05:51:59.120Z,100.00
2022-08-17T05:57:21.007Z,100.00
2022-08-17T06:02:56.731Z,100.00
2022-08-17T06:08:17.809Z,100.00
2022-08-17T06:13:31.845Z,100.00
2022-08-17T06:18:43.497Z,100.00
2022-08-17T06:23:48.218Z,100.00
2022-08-17T06:29:27.573Z,100.00
2022-08-17T06:34:29.973Z,100.00
2022-08-17T06:39:37.999Z,100.00
2022-08-17T06:44:52.002Z,100.00
2022-08-17T06:50:05.589Z,100.00
2022-08-17T06:55:24.089Z,100.00
2022-08-17T07:00:36.614Z,100.00
2022-08-17T07:05:46.208Z,100.00
2022-08-17T07:10:56.319Z,100.00
2022-08-17T07:16:13.237Z,100.00
2022-08-17T07:21:55.087Z,100.00
2022-08-17T07:27:13.232Z,100.00
2022-08-17T07:32:20.215Z,100.00
2022-08-17T07:37:22.051Z,100.00
2022-08-17T07:42:24.013Z,100.00
2022-08-17T07:47:55.160Z,100.00
2022-08-17T07:52:57.232Z,100.00
2022-08-17T07:58:00.245Z,100.00
2022-08-17T08:03:17.425Z,100.00
2022-08-17T08:08:28.561Z,100.00
2022-08-17T08:13:32.455Z,100.00
2022-08-17T08:18:54.843Z,100.00
2022-08-17T08:24:10.093Z,100.00
2022-08-17T08:29:32.620Z,100.00
2022-08-17T08:34:58.788Z,100.00
2022-08-17T08:40:25.771Z,100.00
2022-08-17T08:46:00.902Z,100.00
2022-08-17T08:51:20.423Z,100.00
2022-08-17T08:56:35.724Z,100.00
2022-08-17T09:01:51.261Z,100.00
2022-08-17T09:07:02.318Z,100.00
2022-08-17T09:12:29.268Z,100.00
2022-08-17T09:17:47.181Z,100.00
2022-08-17T09:22:56.686Z,97.23
2022-08-17T09:28:02.168Z,100.00
2022-08-17T09:33:08.634Z,100.00
2022-08-17T09:38:16.549Z,98.58
2022-08-17T09:43:24.981Z,92.24
2022-08-17T09:48:40.435Z,86.47
2022-08-17T09:53:44.723Z,79.47
2022-08-17T09:58:47.742Z,86.44
2022-08-17T10:04:08.322Z,76.71
2022-08-17T10:09:44.625Z,73.28
2022-08-17T10:15:08.134Z,71.56
2022-08-17T10:20:14.349Z,70.41
2022-08-17T10:25:56.055Z,68.84
2022-08-17T10:31:34.292Z,65.33
2022-08-17T10:36:30.033Z,65.04
2022-08-17T10:41:41.615Z,66.21
2022-08-17T10:47:13.821Z,62.35
2022-08-17T10:52:27.919Z,68.60
2022-08-17T10:57:29.801Z,63.86
2022-08-17T11:02:41.358Z,61.52
2022-08-17T11:08:27.378Z,62.23
2022-08-17T11:13:41.338Z,57.18
2022-08-17T11:19:08.513Z,43.88
2022-08-17T11:24:19.156Z,40.42
2022-08-17T11:29:24.706Z,39.55
2022-08-17T11:34:30.325Z,51.21
2022-08-17T11:40:06.730Z,55.89
2022-08-17T11:45:40.279Z,41.67
2022-08-17T11:51:13.275Z,39.38
2022-08-17T11:56:35.286Z,36.03
2022-08-17T12:01:57.120Z,33.68
2022-08-17T12:06:59.870Z,31.73
2022-08-17T12:12:22.733Z,30.08
2022-08-17T12:17:41.272Z,29.71
2022-08-17T12:23:01.234Z,28.99
2022-08-17T12:28:06.183Z,27.10
2022-08-17T12:33:25.211Z,27.19
2022-08-17T12:38:36.128Z,28.03
2022-08-17T12:43:38.101Z,29.54
2022-08-17T12:48:39.925Z,33.85
2022-08-17T12:54:02.299Z,33.96
2022-08-17T12:59:04.197Z,28.18
2022-08-17T13:04:06.797Z,32.09
2022-08-17T13:09:12.510Z,31.69
2022-08-17T13:14:18.347Z,29.55
2022-08-17T13:19:39.723Z,28.00
2022-08-17T13:25:00.835Z,27.33
2022-08-17T13:30:11.709Z,26.74
2022-08-17T13:35:38.897Z,27.62
2022-08-17T13:40:53.462Z,26.36
2022-08-17T13:46:08.886Z,26.48
2022-08-17T13:51:19.841Z,24.51
2022-08-17T13:56:38.250Z,24.67
2022-08-17T14:01:53.628Z,24.95
2022-08-17T14:07:04.194Z,26.33
2022-08-17T14:12:11.372Z,24.62
2022-08-17T14:17:13.597Z,25.26
2022-08-17T14:22:27.664Z,23.77
2022-08-17T14:27:52.496Z,21.97
2022-08-17T14:32:56.502Z,22.76
2022-08-17T14:37:58.776Z,22.35
2022-08-17T14:43:01.390Z,24.44
2022-08-17T14:48:09.514Z,26.47
2022-08-17T14:53:14.318Z,24.35
2022-08-17T14:58:16.139Z,25.51
2022-08-17T15:03:18.733Z,26.22
2022-08-17T15:08:20.593Z,30.73
2022-08-17T15:13:25.494Z,31.69
2022-08-17T15:18:27.331Z,33.78
2022-08-17T15:23:29.178Z,35.29
2022-08-17T15:28:31.162Z,36.42
2022-08-17T15:33:33.133Z,38.72
2022-08-17T15:38:39.360Z,41.89
2022-08-17T15:43:42.789Z,41.41
2022-08-17T15:48:47.855Z,44.31
2022-08-17T15:53:56.128Z,46.58
2022-08-17T15:58:59.886Z,48.23
2022-08-17T16:04:06.655Z,46.40
2022-08-17T16:09:09.349Z,47.55
2022-08-17T16:14:11.155Z,54.86
2022-08-17T16:19:16.314Z,53.45
2022-08-17T16:24:18.129Z,54.02
2022-08-17T16:29:19.922Z,62.65
2022-08-17T16:34:22.257Z,62.97
2022-08-17T16:39:26.762Z,87.29
2022-08-17T16:44:30.678Z,65.03
2022-08-17T16:49:36.832Z,62.59
2022-08-17T16:54:43.830Z,63.97
2022-08-17T16:59:50.303Z,64.81
2022-08-17T17:05:02.624Z,68.95
2022-08-17T17:10:18.188Z,74.36
2022-08-17T17:15:22.329Z,75.87
2022-08-17T17:20:36.567Z,81.08
2022-08-17T17:25:57.323Z,87.81
2022-08-17T17:31:23.823Z,95.35
2022-08-17T17:36:35.527Z,93.12
2022-08-17T17:41:47.207Z,100.00
2022-08-17T17:46:54.519Z,100.00
2022-08-17T17:52:10.947Z,100.00
2022-08-17T17:57:56.511Z,100.00
2022-08-17T18:03:33.728Z,100.00
2022-08-17T18:08:45.766Z,100.00
2022-08-17T18:14:15.579Z,100.00
2022-08-17T18:19:20.731Z,100.00
2022-08-17T18:24:32.188Z,100.00
2022-08-17T18:29:40.007Z,100.00
2022-08-17T18:34:48.229Z,100.00
2022-08-17T18:39:50.637Z,100.00
2022-08-17T18:44:55.262Z,100.00
2022-08-17T18:50:27.518Z,100.00
2022-08-17T18:55:30.343Z,100.00
2022-08-17T19:00:41.489Z,100.00
2022-08-17T19:05:45.394Z,100.00
2022-08-17T19:10:50.406Z,100.00
2022-08-17T19:16:14.149Z,100.00
2022-08-17T19:21:30.517Z,100.00
2022-08-17T19:26:55.381Z,100.00
2022-08-17T19:31:59.063Z,100.00
2022-08-17T19:37:23.621Z,100.00
2022-08-17T19:42:53.062Z,100.00
2022-08-17T19:48:25.612Z,100.00
2022-08-17T19:54:04.848Z,100.00
2022-08-17T19:59:07.293Z,100.00
2022-08-17T20:04:32.976Z,100.00
2022-08-17T20:09:39.003Z,100.00
2022-08-17T20:14:55.363Z,100.00
2022-08-17T20:20:20.226Z,100.00
2022-08-17T20:25:39.322Z,100.00
2022-08-17T20:30:42.974Z,100.00
2022-08-17T20:36:03.312Z,100.00
2022-08-17T20:41:10.245Z,100.00
2022-08-17T20:46:41.115Z,100.00
2022-08-17T20:52:07.802Z,100.00
2022-08-17T20:57:30.415Z,100.00
2022-08-17T21:02:33.095Z,100.00
2022-08-17T21:07:43.131Z,100.00
2022-08-17T21:12:48.670Z,100.00
2022-08-17T21:18:23.363Z,100.00
2022-08-17T21:23:50.916Z,100.00
2022-08-17T21:29:31.286Z,100.00
2022-08-17T21:34:39.795Z,100.00
2022-08-17T21:40:11.325Z,100.00
2022-08-17T21:45:41.114Z,100.00
2022-08-17T21:50:57.915Z,100.00
2022-08-17T21:55:59.986Z,100.00
2022-08-17T22:01:26.061Z,100.00
2022-08-17T22:06:27.953Z,100.00
2022-08-17T22:11:29.854Z,100.00
2022-08-17T22:16:31.966Z,100.00
2022-08-17T22:21:33.877Z,100.00
2022-08-17T22:27:00.780Z,100.00
2022-08-17T22:32:02.691Z,100.00
2022-08-17T22:37:28.914Z,100.00
2022-08-17T22:42:31.300Z,100.00
2022-08-17T22:47:41.077Z,100.00
2022-08-17T22:53:15.563Z,100.00
2022-08-17T22:58:43.320Z,100.00
2022-08-17T23:04:04.703Z,100.00
2022-08-17T23:09:07.237Z,100.00
2022-08-17T23:14:12.199Z,100.00
2022-08-17T23:19:17.622Z,100.00
2022-08-17T23:24:25.829Z,100.00
2022-08-17T23:29:29.370Z,100.00
2022-08-17T23:34:31.586Z,100.00
2022-08-17T23:39:33.978Z,100.00
2022-08-17T23:44:38.101Z,100.00
2022-08-17T23:49:41.394Z,100.00
2022-08-17T23:54:46.648Z,100.00
2022-08-17T23:59:49.090Z,100.00
